Terminal Aerodrome Forecast
Issued by NWS

Current Version | Previous Version | Graphics & Text | Print | Product List | Glossary On
Versions: 1 2 3 4 5 6 7 8 9 10 11 12 13 14 15 16 17 18 19 20 21 22 23 24 25 26 27 28
208
FTUS41 KPBZ 301009 AAA
TAFMGW
TAF AMD
KMGW 301009Z 3010/3106 00000KT P6SM BKN150
     FM301300 19003KT P6SM VCSH SCT015 BKN070
     FM302000 23004KT P6SM -SHRA VCTS BKN050CB
     FM302300 22003KT P6SM VCSH BKN100
     FM310300 19003KT P6SM BKN150=

USA.gov is the U.S. government's official web portal to all federal, state and local government web resources and services.